YHID

Details ICAO YHID (HID)
Name Horn Island
Region Australia
Timezone Australia/Brisbane (UTC+10.0)
Plans Departing 243
Arriving 248
Stats Elevation 43 ft / 13 m (AMSL)
Location -10.585700° 142.290000°
Runways 2
Magnetic Variation 4.780° E
Sunrise 2020-04-04 20:35:49 UTC / 2020-04-05 06:35:49 Local
Sunset 2020-04-05 08:33:31 UTC / 2020-04-05 18:33:31 Local
Advertisement - Login to hide

Runways

ID Width Length Bearing (true/mag) Surface Threshold Overrun Markings Lighting
08 102 ft / 31 m 4,565 ft / 1,392 m 84.80° / 80.02° ASPHALT 0 ft / 0 m 66 ft / 20 m APP
14 75 ft / 23 m 4,082 ft / 1,244 m 139.90° / 135.12° ASPHALT 0 ft / 0 m 190 ft / 58 m VISUAL
26 102 ft / 31 m 4,565 ft / 1,392 m 264.80° / 260.02° ASPHALT 0 ft / 0 m 200 ft / 61 m APP
32 75 ft / 23 m 4,082 ft / 1,244 m 319.90° / 315.12° ASPHALT 0 ft / 0 m 0 ft / 0 m VISUAL

Map

Weather


0- 5 10 15 20 25 30 35+ Temperature / °C

Clouds and Precipitation
Forecast for 2020-04-05 00:00 UTC. Updated 5 hours ago

Ground ~20,000 ft ~40,000 ft Winds

METAR

YHID 050200Z AUTO 08007KT 050V130 9999 // BKN016 BKN020 30/26 Q1011

TAF

TAF YHID 041702Z 0418/0518 VRB03KT 9999 SCT017 FM042100 VRB03KT 9999 SCT015 FM050300 05010KT 9999 SCT015 FM051100 12005KT 9999 SCT015

Frequencies

Unicom 119.60 MHz ACTIVATE LIGHTS ONLY MULT
Unicom 120.30 MHz BRISBANE CENTRE MULT
Unicom 126.50 MHz Horn Island MULT
Warning: Do not use this data for real-world aviation or navigation. No guarantee of current accuracy is given.